sensor_id;sensor_type;location;lat;lon;timestamp;temperature;humidity
15596;DHT22;7898;48.658;9.068;2023-11-19T00:00:27;7.80;99.90
15596;DHT22;7898;48.658;9.068;2023-11-19T00:02:54;7.80;99.90
15596;DHT22;7898;48.658;9.068;2023-11-19T00:05:21;7.80;99.90
15596;DHT22;7898;48.658;9.068;2023-11-19T00:07:50;7.80;99.90
15596;DHT22;7898;48.658;9.068;2023-11-19T00:10:17;7.80;99.90
15596;DHT22;7898;48.658;9.068;2023-11-19T00:12:46;7.90;99.90
15596;DHT22;7898;48.658;9.068;2023-11-19T00:15:14;7.80;99.90
15596;DHT22;7898;48.658;9.068;2023-11-19T00:17:41;7.90;99.90
15596;DHT22;7898;48.658;9.068;2023-11-19T00:20:10;7.90;99.90
15596;DHT22;7898;48.658;9.068;2023-11-19T00:22:38;7.90;99.90
15596;DHT22;7898;48.658;9.068;2023-11-19T00:25:07;8.00;99.90
15596;DHT22;7898;48.658;9.068;2023-11-19T00:27:34;8.00;99.90
15596;DHT22;7898;48.658;9.068;2023-11-19T00:30:01;7.90;99.90
15596;DHT22;7898;48.658;9.068;2023-11-19T00:32:31;7.90;99.90
15596;DHT22;7898;48.658;9.068;2023-11-19T00:34:57;7.90;99.90
15596;DHT22;7898;48.658;9.068;2023-11-19T00:37:24;7.90;99.90
15596;DHT22;7898;48.658;9.068;2023-11-19T00:39:52;7.90;99.90
15596;DHT22;7898;48.658;9.068;2023-11-19T00:42:20;8.00;99.90
15596;DHT22;7898;48.658;9.068;2023-11-19T00:44:47;8.00;99.90
15596;DHT22;7898;48.658;9.068;2023-11-19T00:47:16;8.10;99.90
15596;DHT22;7898;48.658;9.068;2023-11-19T00:49:45;8.10;99.90
15596;DHT22;7898;48.658;9.068;2023-11-19T00:52:14;8.10;99.90
15596;DHT22;7898;48.658;9.068;2023-11-19T00:54:40;8.10;99.90
15596;DHT22;7898;48.658;9.068;2023-11-19T00:57:07;8.10;99.90
15596;DHT22;7898;48.658;9.068;2023-11-19T00:59:36;8.10;99.90
15596;DHT22;7898;48.658;9.068;2023-11-19T01:02:03;8.20;99.90
15596;DHT22;7898;48.658;9.068;2023-11-19T01:04:33;8.20;99.90
15596;DHT22;7898;48.658;9.068;2023-11-19T01:07:01;8.30;99.90
15596;DHT22;7898;48.658;9.068;2023-11-19T01:09:30;8.30;99.90
15596;DHT22;7898;48.658;9.068;2023-11-19T01:11:58;8.40;99.90
15596;DHT22;7898;48.658;9.068;2023-11-19T01:14:25;8.40;99.90
15596;DHT22;7898;48.658;9.068;2023-11-19T01:16:54;8.50;99.90
15596;DHT22;7898;48.658;9.068;2023-11-19T01:19:21;8.50;99.90
15596;DHT22;7898;48.658;9.068;2023-11-19T01:21:49;8.60;99.90
15596;DHT22;7898;48.658;9.068;2023-11-19T01:24:16;8.60;99.90
15596;DHT22;7898;48.658;9.068;2023-11-19T01:26:43;8.60;99.90
15596;DHT22;7898;48.658;9.068;2023-11-19T01:29:11;8.60;99.90
15596;DHT22;7898;48.658;9.068;2023-11-19T01:31:39;8.70;99.90
15596;DHT22;7898;48.658;9.068;2023-11-19T01:34:07;8.70;99.90
15596;DHT22;7898;48.658;9.068;2023-11-19T01:36:34;8.70;99.90
15596;DHT22;7898;48.658;9.068;2023-11-19T01:39:01;8.80;99.90
15596;DHT22;7898;48.658;9.068;2023-11-19T01:41:29;8.80;99.90
15596;DHT22;7898;48.658;9.068;2023-11-19T01:44:00;8.70;99.90
15596;DHT22;7898;48.658;9.068;2023-11-19T01:46:27;8.80;99.90
15596;DHT22;7898;48.658;9.068;2023-11-19T01:48:54;8.80;99.90
15596;DHT22;7898;48.658;9.068;2023-11-19T01:51:23;8.80;99.90
15596;DHT22;7898;48.658;9.068;2023-11-19T01:53:50;9.00;99.90
15596;DHT22;7898;48.658;9.068;2023-11-19T01:56:17;8.90;99.90
15596;DHT22;7898;48.658;9.068;2023-11-19T01:58:45;8.90;99.90
15596;DHT22;7898;48.658;9.068;2023-11-19T02:01:13;8.90;99.90
15596;DHT22;7898;48.658;9.068;2023-11-19T02:03:41;8.90;99.90
15596;DHT22;7898;48.658;9.068;2023-11-19T02:06:08;9.00;99.90
15596;DHT22;7898;48.658;9.068;2023-11-19T02:08:37;9.00;99.90
15596;DHT22;7898;48.658;9.068;2023-11-19T02:11:05;9.10;99.90
15596;DHT22;7898;48.658;9.068;2023-11-19T02:13:32;9.10;99.90
15596;DHT22;7898;48.658;9.068;2023-11-19T02:16:02;9.20;99.90
15596;DHT22;7898;48.658;9.068;2023-11-19T02:18:29;9.10;99.90
15596;DHT22;7898;48.658;9.068;2023-11-19T02:20:56;9.10;99.90
15596;DHT22;7898;48.658;9.068;2023-11-19T02:23:25;9.20;99.90
15596;DHT22;7898;48.658;9.068;2023-11-19T02:26:03;9.20;99.90
15596;DHT22;7898;48.658;9.068;2023-11-19T02:28:36;9.20;99.90
15596;DHT22;7898;48.658;9.068;2023-11-19T02:31:03;9.30;99.90
15596;DHT22;7898;48.658;9.068;2023-11-19T02:33:31;9.30;99.90
15596;DHT22;7898;48.658;9.068;2023-11-19T02:35:58;9.30;99.90
15596;DHT22;7898;48.658;9.068;2023-11-19T02:38:25;9.40;99.90
15596;DHT22;7898;48.658;9.068;2023-11-19T02:40:52;9.40;99.90
15596;DHT22;7898;48.658;9.068;2023-11-19T02:43:19;9.40;99.90
15596;DHT22;7898;48.658;9.068;2023-11-19T02:45:47;9.40;99.90
15596;DHT22;7898;48.658;9.068;2023-11-19T02:48:14;9.40;99.90
15596;DHT22;7898;48.658;9.068;2023-11-19T02:50:41;9.50;99.90
15596;DHT22;7898;48.658;9.068;2023-11-19T02:53:08;9.50;99.90
15596;DHT22;7898;48.658;9.068;2023-11-19T02:55:36;9.50;99.90
15596;DHT22;7898;48.658;9.068;2023-11-19T02:58:04;9.60;99.90
15596;DHT22;7898;48.658;9.068;2023-11-19T03:00:40;9.60;99.90
15596;DHT22;7898;48.658;9.068;2023-11-19T03:03:15;9.70;99.90
15596;DHT22;7898;48.658;9.068;2023-11-19T03:05:46;9.70;99.90
15596;DHT22;7898;48.658;9.068;2023-11-19T03:08:14;9.70;99.90
15596;DHT22;7898;48.658;9.068;2023-11-19T03:10:41;9.70;99.90
15596;DHT22;7898;48.658;9.068;2023-11-19T03:13:11;9.70;99.90
15596;DHT22;7898;48.658;9.068;2023-11-19T03:15:39;9.80;99.90
15596;DHT22;7898;48.658;9.068;2023-11-19T03:18:06;9.80;99.90
15596;DHT22;7898;48.658;9.068;2023-11-19T03:20:35;9.80;99.90
15596;DHT22;7898;48.658;9.068;2023-11-19T03:23:01;9.90;99.90
15596;DHT22;7898;48.658;9.068;2023-11-19T03:25:28;9.90;99.90
15596;DHT22;7898;48.658;9.068;2023-11-19T03:27:59;9.90;99.90
15596;DHT22;7898;48.658;9.068;2023-11-19T03:30:26;9.90;99.90
15596;DHT22;7898;48.658;9.068;2023-11-19T03:32:54;9.90;99.90
15596;DHT22;7898;48.658;9.068;2023-11-19T03:35:21;9.90;99.90
15596;DHT22;7898;48.658;9.068;2023-11-19T03:37:49;9.90;99.90
15596;DHT22;7898;48.658;9.068;2023-11-19T03:40:16;9.90;99.90
15596;DHT22;7898;48.658;9.068;2023-11-19T03:42:44;9.90;99.90
15596;DHT22;7898;48.658;9.068;2023-11-19T03:45:11;10.00;99.90
15596;DHT22;7898;48.658;9.068;2023-11-19T03:47:38;9.90;99.90
15596;DHT22;7898;48.658;9.068;2023-11-19T03:50:06;10.00;99.90
15596;DHT22;7898;48.658;9.068;2023-11-19T03:52:34;10.00;99.90
15596;DHT22;7898;48.658;9.068;2023-11-19T03:55:02;10.00;99.90
15596;DHT22;7898;48.658;9.068;2023-11-19T03:57:30;10.00;99.90
15596;DHT22;7898;48.658;9.068;2023-11-19T03:59:57;10.00;99.90
15596;DHT22;7898;48.658;9.068;2023-11-19T04:02:25;10.00;99.90
15596;DHT22;7898;48.658;9.068;2023-11-19T04:04:54;10.00;99.90
15596;DHT22;7898;48.658;9.068;2023-11-19T04:07:21;10.00;99.90
15596;DHT22;7898;48.658;9.068;2023-11-19T04:09:48;10.00;99.90
15596;DHT22;7898;48.658;9.068;2023-11-19T04:12:17;10.00;99.90
15596;DHT22;7898;48.658;9.068;2023-11-19T04:14:43;10.00;99.90
15596;DHT22;7898;48.658;9.068;2023-11-19T04:17:10;10.00;99.90
15596;DHT22;7898;48.658;9.068;2023-11-19T04:19:37;10.00;99.90
15596;DHT22;7898;48.658;9.068;2023-11-19T04:22:07;10.00;99.90
15596;DHT22;7898;48.658;9.068;2023-11-19T04:24:34;10.00;99.90
15596;DHT22;7898;48.658;9.068;2023-11-19T04:27:01;10.10;99.90
15596;DHT22;7898;48.658;9.068;2023-11-19T04:29:30;10.00;99.90
15596;DHT22;7898;48.658;9.068;2023-11-19T04:31:57;10.10;99.90
15596;DHT22;7898;48.658;9.068;2023-11-19T04:34:26;10.10;99.90
15596;DHT22;7898;48.658;9.068;2023-11-19T04:36:53;10.10;99.90
15596;DHT22;7898;48.658;9.068;2023-11-19T04:39:20;10.10;99.90
15596;DHT22;7898;48.658;9.068;2023-11-19T04:41:48;10.10;99.90
15596;DHT22;7898;48.658;9.068;2023-11-19T04:44:15;10.10;99.90
15596;DHT22;7898;48.658;9.068;2023-11-19T04:46:44;10.10;99.90
15596;DHT22;7898;48.658;9.068;2023-11-19T04:49:13;10.10;99.90
15596;DHT22;7898;48.658;9.068;2023-11-19T04:51:40;10.20;99.90
15596;DHT22;7898;48.658;9.068;2023-11-19T04:54:08;10.20;99.90
15596;DHT22;7898;48.658;9.068;2023-11-19T04:56:35;10.20;99.90
15596;DHT22;7898;48.658;9.068;2023-11-19T04:59:03;10.20;99.90
15596;DHT22;7898;48.658;9.068;2023-11-19T05:01:31;10.20;99.90
15596;DHT22;7898;48.658;9.068;2023-11-19T05:04:00;10.20;99.90
15596;DHT22;7898;48.658;9.068;2023-11-19T05:06:27;10.30;99.90
15596;DHT22;7898;48.658;9.068;2023-11-19T05:08:54;10.30;99.90
15596;DHT22;7898;48.658;9.068;2023-11-19T05:11:21;10.30;99.90
15596;DHT22;7898;48.658;9.068;2023-11-19T05:13:48;10.30;99.90
15596;DHT22;7898;48.658;9.068;2023-11-19T05:16:15;10.30;99.90
15596;DHT22;7898;48.658;9.068;2023-11-19T05:18:43;10.30;99.90
15596;DHT22;7898;48.658;9.068;2023-11-19T05:21:11;10.40;99.90
15596;DHT22;7898;48.658;9.068;2023-11-19T05:23:39;10.40;99.90
15596;DHT22;7898;48.658;9.068;2023-11-19T05:26:07;10.40;99.90
15596;DHT22;7898;48.658;9.068;2023-11-19T05:28:35;10.30;99.90
15596;DHT22;7898;48.658;9.068;2023-11-19T05:31:01;10.40;99.90
15596;DHT22;7898;48.658;9.068;2023-11-19T05:33:28;10.40;99.90
15596;DHT22;7898;48.658;9.068;2023-11-19T05:35:55;10.50;99.90
15596;DHT22;7898;48.658;9.068;2023-11-19T05:38:24;10.40;99.90
15596;DHT22;7898;48.658;9.068;2023-11-19T05:40:50;10.40;99.90
15596;DHT22;7898;48.658;9.068;2023-11-19T05:43:17;10.40;99.90
15596;DHT22;7898;48.658;9.068;2023-11-19T05:45:44;10.40;99.90
15596;DHT22;7898;48.658;9.068;2023-11-19T05:48:11;10.40;99.90
15596;DHT22;7898;48.658;9.068;2023-11-19T05:50:38;10.40;99.90
15596;DHT22;7898;48.658;9.068;2023-11-19T05:53:05;10.40;99.90
15596;DHT22;7898;48.658;9.068;2023-11-19T05:55:37;10.40;99.90
15596;DHT22;7898;48.658;9.068;2023-11-19T05:58:10;10.40;99.90
15596;DHT22;7898;48.658;9.068;2023-11-19T06:00:38;10.50;99.90
15596;DHT22;7898;48.658;9.068;2023-11-19T06:03:05;10.40;99.90
15596;DHT22;7898;48.658;9.068;2023-11-19T06:05:33;10.50;99.90
15596;DHT22;7898;48.658;9.068;2023-11-19T06:08:00;10.50;99.90
15596;DHT22;7898;48.658;9.068;2023-11-19T06:10:27;10.50;99.90
15596;DHT22;7898;48.658;9.068;2023-11-19T06:12:59;10.50;99.90
15596;DHT22;7898;48.658;9.068;2023-11-19T06:15:26;10.50;99.90
15596;DHT22;7898;48.658;9.068;2023-11-19T06:17:53;10.50;99.90
15596;DHT22;7898;48.658;9.068;2023-11-19T06:20:20;10.50;99.90
15596;DHT22;7898;48.658;9.068;2023-11-19T06:22:47;10.50;99.90
15596;DHT22;7898;48.658;9.068;2023-11-19T06:25:14;10.50;99.90
15596;DHT22;7898;48.658;9.068;2023-11-19T06:27:41;10.60;99.90
15596;DHT22;7898;48.658;9.068;2023-11-19T06:30:11;10.50;99.90
15596;DHT22;7898;48.658;9.068;2023-11-19T06:32:38;10.60;99.90
15596;DHT22;7898;48.658;9.068;2023-11-19T06:35:05;10.60;99.90
15596;DHT22;7898;48.658;9.068;2023-11-19T06:37:32;10.50;99.90
15596;DHT22;7898;48.658;9.068;2023-11-19T06:39:59;10.50;99.90
15596;DHT22;7898;48.658;9.068;2023-11-19T06:42:26;10.50;99.90
15596;DHT22;7898;48.658;9.068;2023-11-19T06:44:53;10.50;99.90
15596;DHT22;7898;48.658;9.068;2023-11-19T06:47:25;10.50;99.90
15596;DHT22;7898;48.658;9.068;2023-11-19T06:49:52;10.50;99.90
15596;DHT22;7898;48.658;9.068;2023-11-19T06:52:19;10.50;99.90
15596;DHT22;7898;48.658;9.068;2023-11-19T06:54:46;10.50;99.90
15596;DHT22;7898;48.658;9.068;2023-11-19T06:57:13;10.60;99.90
15596;DHT22;7898;48.658;9.068;2023-11-19T06:59:40;10.50;99.90
15596;DHT22;7898;48.658;9.068;2023-11-19T07:02:07;10.50;99.90
15596;DHT22;7898;48.658;9.068;2023-11-19T07:04:35;10.60;99.90
15596;DHT22;7898;48.658;9.068;2023-11-19T07:07:02;10.60;99.90
15596;DHT22;7898;48.658;9.068;2023-11-19T07:09:31;10.60;99.90
15596;DHT22;7898;48.658;9.068;2023-11-19T07:11:58;10.60;99.90
15596;DHT22;7898;48.658;9.068;2023-11-19T07:14:27;10.60;99.90
15596;DHT22;7898;48.658;9.068;2023-11-19T07:16:54;10.70;99.90
15596;DHT22;7898;48.658;9.068;2023-11-19T07:19:21;10.70;99.90
15596;DHT22;7898;48.658;9.068;2023-11-19T07:21:49;10.70;99.90
15596;DHT22;7898;48.658;9.068;2023-11-19T07:24:16;10.70;99.90
15596;DHT22;7898;48.658;9.068;2023-11-19T07:26:43;10.70;99.90
15596;DHT22;7898;48.658;9.068;2023-11-19T07:29:10;10.80;99.90
15596;DHT22;7898;48.658;9.068;2023-11-19T07:31:37;10.80;99.90
15596;DHT22;7898;48.658;9.068;2023-11-19T07:34:04;10.90;99.90
15596;DHT22;7898;48.658;9.068;2023-11-19T07:36:32;10.90;99.90
15596;DHT22;7898;48.658;9.068;2023-11-19T07:39:00;10.90;99.90
15596;DHT22;7898;48.658;9.068;2023-11-19T07:41:27;10.90;99.90
15596;DHT22;7898;48.658;9.068;2023-11-19T07:43:55;10.90;99.90
15596;DHT22;7898;48.658;9.068;2023-11-19T07:46:22;11.00;99.90
15596;DHT22;7898;48.658;9.068;2023-11-19T07:48:48;11.00;99.90
15596;DHT22;7898;48.658;9.068;2023-11-19T07:51:15;11.00;99.90
15596;DHT22;7898;48.658;9.068;2023-11-19T07:53:42;11.00;99.90
15596;DHT22;7898;48.658;9.068;2023-11-19T07:56:11;11.00;99.90
15596;DHT22;7898;48.658;9.068;2023-11-19T07:58:38;11.00;99.90
15596;DHT22;7898;48.658;9.068;2023-11-19T08:01:05;11.00;99.90
15596;DHT22;7898;48.658;9.068;2023-11-19T08:03:32;11.00;99.90
15596;DHT22;7898;48.658;9.068;2023-11-19T08:06:00;11.00;99.90
15596;DHT22;7898;48.658;9.068;2023-11-19T08:08:27;11.10;99.90
15596;DHT22;7898;48.658;9.068;2023-11-19T08:10:55;11.10;99.90
15596;DHT22;7898;48.658;9.068;2023-11-19T08:13:24;11.10;99.90
15596;DHT22;7898;48.658;9.068;2023-11-19T08:15:51;11.10;99.90
15596;DHT22;7898;48.658;9.068;2023-11-19T08:18:18;11.10;99.90
15596;DHT22;7898;48.658;9.068;2023-11-19T08:20:45;11.20;99.90
15596;DHT22;7898;48.658;9.068;2023-11-19T08:23:15;11.20;99.90
15596;DHT22;7898;48.658;9.068;2023-11-19T08:25:42;11.30;99.90
15596;DHT22;7898;48.658;9.068;2023-11-19T08:28:10;11.30;99.90
15596;DHT22;7898;48.658;9.068;2023-11-19T08:30:38;11.40;99.90
15596;DHT22;7898;48.658;9.068;2023-11-19T08:33:05;11.50;99.90
15596;DHT22;7898;48.658;9.068;2023-11-19T08:35:32;11.50;99.90
15596;DHT22;7898;48.658;9.068;2023-11-19T08:37:59;11.60;99.90
15596;DHT22;7898;48.658;9.068;2023-11-19T08:40:27;12.00;99.90
15596;DHT22;7898;48.658;9.068;2023-11-19T08:42:55;12.90;99.90
15596;DHT22;7898;48.658;9.068;2023-11-19T08:45:22;13.60;99.90
15596;DHT22;7898;48.658;9.068;2023-11-19T08:47:50;14.50;99.90
15596;DHT22;7898;48.658;9.068;2023-11-19T08:50:17;15.10;99.90
15596;DHT22;7898;48.658;9.068;2023-11-19T08:52:44;15.70;99.90
15596;DHT22;7898;48.658;9.068;2023-11-19T08:55:11;16.40;99.90
15596;DHT22;7898;48.658;9.068;2023-11-19T08:57:39;16.80;99.90
15596;DHT22;7898;48.658;9.068;2023-11-19T09:00:07;17.00;99.90
15596;DHT22;7898;48.658;9.068;2023-11-19T09:02:34;17.40;99.90
15596;DHT22;7898;48.658;9.068;2023-11-19T09:05:04;17.60;99.90
15596;DHT22;7898;48.658;9.068;2023-11-19T09:07:33;17.80;99.90
15596;DHT22;7898;48.658;9.068;2023-11-19T09:09:59;18.00;99.90
15596;DHT22;7898;48.658;9.068;2023-11-19T09:12:26;18.00;99.90
15596;DHT22;7898;48.658;9.068;2023-11-19T09:14:53;18.00;99.90
15596;DHT22;7898;48.658;9.068;2023-11-19T09:17:20;18.50;99.90
15596;DHT22;7898;48.658;9.068;2023-11-19T09:19:47;18.90;99.90
15596;DHT22;7898;48.658;9.068;2023-11-19T09:22:15;18.50;99.90
15596;DHT22;7898;48.658;9.068;2023-11-19T09:24:42;17.80;99.90
15596;DHT22;7898;48.658;9.068;2023-11-19T09:27:10;16.90;99.90
15596;DHT22;7898;48.658;9.068;2023-11-19T09:29:37;16.20;99.90
15596;DHT22;7898;48.658;9.068;2023-11-19T09:32:05;15.70;99.90
15596;DHT22;7898;48.658;9.068;2023-11-19T09:34:32;15.40;99.90
15596;DHT22;7898;48.658;9.068;2023-11-19T09:36:59;15.30;99.90
15596;DHT22;7898;48.658;9.068;2023-11-19T09:39:27;15.20;99.90
15596;DHT22;7898;48.658;9.068;2023-11-19T09:41:54;15.00;99.90
15596;DHT22;7898;48.658;9.068;2023-11-19T09:44:21;14.80;99.90
15596;DHT22;7898;48.658;9.068;2023-11-19T09:46:48;14.80;99.90
15596;DHT22;7898;48.658;9.068;2023-11-19T09:49:16;14.60;99.90
15596;DHT22;7898;48.658;9.068;2023-11-19T09:51:45;14.50;99.90
15596;DHT22;7898;48.658;9.068;2023-11-19T09:54:12;14.40;99.90
15596;DHT22;7898;48.658;9.068;2023-11-19T09:56:41;14.80;99.90
15596;DHT22;7898;48.658;9.068;2023-11-19T09:59:08;15.30;99.90
15596;DHT22;7898;48.658;9.068;2023-11-19T10:01:38;15.60;99.90
15596;DHT22;7898;48.658;9.068;2023-11-19T10:04:06;15.40;99.90
15596;DHT22;7898;48.658;9.068;2023-11-19T10:06:33;15.10;99.90
15596;DHT22;7898;48.658;9.068;2023-11-19T10:09:00;14.90;99.90
15596;DHT22;7898;48.658;9.068;2023-11-19T10:11:27;15.10;99.90
15596;DHT22;7898;48.658;9.068;2023-11-19T10:13:55;15.50;99.90
15596;DHT22;7898;48.658;9.068;2023-11-19T10:16:28;15.70;99.90
15596;DHT22;7898;48.658;9.068;2023-11-19T10:18:56;15.60;99.90
15596;DHT22;7898;48.658;9.068;2023-11-19T10:21:24;15.60;99.90
15596;DHT22;7898;48.658;9.068;2023-11-19T10:23:54;15.40;99.90
15596;DHT22;7898;48.658;9.068;2023-11-19T10:26:23;15.30;99.90
15596;DHT22;7898;48.658;9.068;2023-11-19T10:28:50;15.20;99.90
15596;DHT22;7898;48.658;9.068;2023-11-19T10:31:19;15.30;99.90
15596;DHT22;7898;48.658;9.068;2023-11-19T10:33:50;15.40;99.90
15596;DHT22;7898;48.658;9.068;2023-11-19T10:36:17;15.50;99.90
15596;DHT22;7898;48.658;9.068;2023-11-19T10:38:52;15.60;99.90
15596;DHT22;7898;48.658;9.068;2023-11-19T10:41:27;15.80;99.90
15596;DHT22;7898;48.658;9.068;2023-11-19T10:43:54;15.70;99.90
15596;DHT22;7898;48.658;9.068;2023-11-19T10:46:22;15.90;99.90
15596;DHT22;7898;48.658;9.068;2023-11-19T10:48:49;16.40;99.90
15596;DHT22;7898;48.658;9.068;2023-11-19T10:51:19;17.00;99.90
15596;DHT22;7898;48.658;9.068;2023-11-19T10:53:49;17.20;99.90
15596;DHT22;7898;48.658;9.068;2023-11-19T10:56:17;16.90;99.90
15596;DHT22;7898;48.658;9.068;2023-11-19T10:58:49;16.60;99.90
15596;DHT22;7898;48.658;9.068;2023-11-19T11:01:19;16.30;99.90
15596;DHT22;7898;48.658;9.068;2023-11-19T11:03:51;16.20;99.90
15596;DHT22;7898;48.658;9.068;2023-11-19T11:06:19;16.00;99.90
15596;DHT22;7898;48.658;9.068;2023-11-19T11:08:48;15.90;99.90
15596;DHT22;7898;48.658;9.068;2023-11-19T11:11:16;15.80;99.90
15596;DHT22;7898;48.658;9.068;2023-11-19T11:13:47;15.60;99.90
15596;DHT22;7898;48.658;9.068;2023-11-19T11:16:18;15.50;99.90
15596;DHT22;7898;48.658;9.068;2023-11-19T11:18:49;15.40;99.90
15596;DHT22;7898;48.658;9.068;2023-11-19T11:21:22;15.30;99.90
15596;DHT22;7898;48.658;9.068;2023-11-19T11:24:21;15.20;99.90
15596;DHT22;7898;48.658;9.068;2023-11-19T11:27:15;15.10;99.90
15596;DHT22;7898;48.658;9.068;2023-11-19T11:30:00;15.00;99.90
15596;DHT22;7898;48.658;9.068;2023-11-19T11:32:35;15.00;99.90
15596;DHT22;7898;48.658;9.068;2023-11-19T11:35:27;14.80;99.90
15596;DHT22;7898;48.658;9.068;2023-11-19T11:38:01;14.70;99.90
15596;DHT22;7898;48.658;9.068;2023-11-19T11:40:29;14.70;99.90
15596;DHT22;7898;48.658;9.068;2023-11-19T11:42:57;14.60;99.90
15596;DHT22;7898;48.658;9.068;2023-11-19T11:45:36;14.60;99.90
15596;DHT22;7898;48.658;9.068;2023-11-19T11:48:15;14.60;99.90
15596;DHT22;7898;48.658;9.068;2023-11-19T11:50:55;14.60;99.90
15596;DHT22;7898;48.658;9.068;2023-11-19T11:53:23;14.50;99.90
15596;DHT22;7898;48.658;9.068;2023-11-19T11:55:55;14.50;99.90
15596;DHT22;7898;48.658;9.068;2023-11-19T11:58:27;14.50;99.90
15596;DHT22;7898;48.658;9.068;2023-11-19T12:00:57;14.50;99.90
15596;DHT22;7898;48.658;9.068;2023-11-19T12:03:27;14.60;99.90
15596;DHT22;7898;48.658;9.068;2023-11-19T12:05:56;14.70;99.90
15596;DHT22;7898;48.658;9.068;2023-11-19T12:08:28;14.70;99.90
15596;DHT22;7898;48.658;9.068;2023-11-19T12:10:56;14.70;99.90
15596;DHT22;7898;48.658;9.068;2023-11-19T12:13:27;15.10;99.90
15596;DHT22;7898;48.658;9.068;2023-11-19T12:16:08;15.30;99.90
15596;DHT22;7898;48.658;9.068;2023-11-19T12:18:39;15.40;99.90
15596;DHT22;7898;48.658;9.068;2023-11-19T12:21:08;15.40;99.90
15596;DHT22;7898;48.658;9.068;2023-11-19T12:23:47;15.30;99.90
15596;DHT22;7898;48.658;9.068;2023-11-19T12:26:34;15.20;99.90
15596;DHT22;7898;48.658;9.068;2023-11-19T12:29:01;15.10;99.90
15596;DHT22;7898;48.658;9.068;2023-11-19T12:31:32;15.20;99.90
15596;DHT22;7898;48.658;9.068;2023-11-19T12:34:05;15.30;99.90
15596;DHT22;7898;48.658;9.068;2023-11-19T12:36:34;15.20;99.90
15596;DHT22;7898;48.658;9.068;2023-11-19T12:39:01;15.10;99.90
15596;DHT22;7898;48.658;9.068;2023-11-19T12:41:29;15.10;99.90
15596;DHT22;7898;48.658;9.068;2023-11-19T12:44:09;15.20;99.90
15596;DHT22;7898;48.658;9.068;2023-11-19T12:46:37;15.30;99.90
15596;DHT22;7898;48.658;9.068;2023-11-19T12:49:04;15.40;99.90
15596;DHT22;7898;48.658;9.068;2023-11-19T12:51:33;15.40;99.90
15596;DHT22;7898;48.658;9.068;2023-11-19T12:54:00;15.30;99.90
15596;DHT22;7898;48.658;9.068;2023-11-19T12:56:26;15.60;99.90
15596;DHT22;7898;48.658;9.068;2023-11-19T12:58:55;15.90;99.90
15596;DHT22;7898;48.658;9.068;2023-11-19T13:01:22;16.00;99.90
15596;DHT22;7898;48.658;9.068;2023-11-19T13:03:49;16.00;99.90
15596;DHT22;7898;48.658;9.068;2023-11-19T13:06:16;15.90;99.90
15596;DHT22;7898;48.658;9.068;2023-11-19T13:08:48;15.80;99.90
15596;DHT22;7898;48.658;9.068;2023-11-19T13:11:30;15.60;99.90
15596;DHT22;7898;48.658;9.068;2023-11-19T13:13:58;15.50;99.90
15596;DHT22;7898;48.658;9.068;2023-11-19T13:16:26;16.10;99.90
15596;DHT22;7898;48.658;9.068;2023-11-19T13:18:53;16.40;99.90
15596;DHT22;7898;48.658;9.068;2023-11-19T13:21:20;16.70;99.90
15596;DHT22;7898;48.658;9.068;2023-11-19T13:23:49;17.00;99.90
15596;DHT22;7898;48.658;9.068;2023-11-19T13:26:16;17.30;99.90
15596;DHT22;7898;48.658;9.068;2023-11-19T13:28:43;17.50;99.90
15596;DHT22;7898;48.658;9.068;2023-11-19T13:31:10;17.60;99.90
15596;DHT22;7898;48.658;9.068;2023-11-19T13:33:37;17.70;99.90
15596;DHT22;7898;48.658;9.068;2023-11-19T13:36:04;17.70;99.90
15596;DHT22;7898;48.658;9.068;2023-11-19T13:38:33;17.30;99.90
15596;DHT22;7898;48.658;9.068;2023-11-19T13:41:03;16.70;99.90
15596;DHT22;7898;48.658;9.068;2023-11-19T13:43:31;16.30;99.90
15596;DHT22;7898;48.658;9.068;2023-11-19T13:45:58;16.10;99.90
15596;DHT22;7898;48.658;9.068;2023-11-19T13:48:25;15.90;99.90
15596;DHT22;7898;48.658;9.068;2023-11-19T13:50:53;15.60;99.90
15596;DHT22;7898;48.658;9.068;2023-11-19T13:53:20;15.50;99.90
15596;DHT22;7898;48.658;9.068;2023-11-19T13:55:47;15.30;99.90
15596;DHT22;7898;48.658;9.068;2023-11-19T13:58:15;15.20;99.90
15596;DHT22;7898;48.658;9.068;2023-11-19T14:00:42;15.10;99.90
15596;DHT22;7898;48.658;9.068;2023-11-19T14:03:09;15.10;99.90
15596;DHT22;7898;48.658;9.068;2023-11-19T14:05:37;15.20;99.90
15596;DHT22;7898;48.658;9.068;2023-11-19T14:08:04;15.20;99.90
15596;DHT22;7898;48.658;9.068;2023-11-19T14:10:37;15.20;99.90
15596;DHT22;7898;48.658;9.068;2023-11-19T14:13:06;15.20;99.90
15596;DHT22;7898;48.658;9.068;2023-11-19T14:15:35;15.20;99.90
15596;DHT22;7898;48.658;9.068;2023-11-19T14:18:02;15.20;99.90
15596;DHT22;7898;48.658;9.068;2023-11-19T14:20:29;15.10;99.90
15596;DHT22;7898;48.658;9.068;2023-11-19T14:22:56;15.10;99.90
15596;DHT22;7898;48.658;9.068;2023-11-19T14:25:23;15.00;99.90
15596;DHT22;7898;48.658;9.068;2023-11-19T14:27:50;15.00;99.90
15596;DHT22;7898;48.658;9.068;2023-11-19T14:30:16;15.00;99.90
15596;DHT22;7898;48.658;9.068;2023-11-19T14:32:45;15.00;99.90
15596;DHT22;7898;48.658;9.068;2023-11-19T14:35:14;15.00;99.90
15596;DHT22;7898;48.658;9.068;2023-11-19T14:37:40;14.80;99.90
15596;DHT22;7898;48.658;9.068;2023-11-19T14:40:08;14.70;99.90
15596;DHT22;7898;48.658;9.068;2023-11-19T14:42:37;14.60;99.90
15596;DHT22;7898;48.658;9.068;2023-11-19T14:45:05;14.50;99.90
15596;DHT22;7898;48.658;9.068;2023-11-19T14:47:32;14.40;99.90
15596;DHT22;7898;48.658;9.068;2023-11-19T14:50:00;14.30;99.90
15596;DHT22;7898;48.658;9.068;2023-11-19T14:52:28;14.10;99.90
15596;DHT22;7898;48.658;9.068;2023-11-19T14:54:55;14.00;99.90
15596;DHT22;7898;48.658;9.068;2023-11-19T14:57:22;13.90;99.90
15596;DHT22;7898;48.658;9.068;2023-11-19T14:59:49;13.80;99.90
15596;DHT22;7898;48.658;9.068;2023-11-19T15:02:16;13.80;99.90
15596;DHT22;7898;48.658;9.068;2023-11-19T15:04:44;13.70;99.90
15596;DHT22;7898;48.658;9.068;2023-11-19T15:07:12;13.60;99.90
15596;DHT22;7898;48.658;9.068;2023-11-19T15:09:39;13.50;99.90
15596;DHT22;7898;48.658;9.068;2023-11-19T15:12:07;13.40;99.90
15596;DHT22;7898;48.658;9.068;2023-11-19T15:14:34;13.30;99.90
15596;DHT22;7898;48.658;9.068;2023-11-19T15:17:01;13.20;99.90
15596;DHT22;7898;48.658;9.068;2023-11-19T15:19:28;13.10;99.90
15596;DHT22;7898;48.658;9.068;2023-11-19T15:21:55;13.10;99.90
15596;DHT22;7898;48.658;9.068;2023-11-19T15:24:24;13.00;99.90
15596;DHT22;7898;48.658;9.068;2023-11-19T15:26:51;13.00;99.90
15596;DHT22;7898;48.658;9.068;2023-11-19T15:29:21;12.90;99.90
15596;DHT22;7898;48.658;9.068;2023-11-19T15:31:51;12.80;99.90
15596;DHT22;7898;48.658;9.068;2023-11-19T15:34:18;12.70;99.90
15596;DHT22;7898;48.658;9.068;2023-11-19T15:36:45;12.70;99.90
15596;DHT22;7898;48.658;9.068;2023-11-19T15:39:12;12.60;99.90
15596;DHT22;7898;48.658;9.068;2023-11-19T15:41:41;12.50;99.90
15596;DHT22;7898;48.658;9.068;2023-11-19T15:44:08;12.40;99.90
15596;DHT22;7898;48.658;9.068;2023-11-19T15:46:35;12.40;99.90
15596;DHT22;7898;48.658;9.068;2023-11-19T15:49:02;12.30;99.90
15596;DHT22;7898;48.658;9.068;2023-11-19T15:51:29;12.30;99.90
15596;DHT22;7898;48.658;9.068;2023-11-19T15:53:56;12.20;99.90
15596;DHT22;7898;48.658;9.068;2023-11-19T15:56:23;12.10;99.90